Time;durP1;ratioP1;P1;durP2;ratioP2;P2;SDS_P1;SDS_P2;PMS_P1;PMS_P2;Temp;Humidity;BMP_temperature;BMP_pressure;BME280_temperature;BME280_humidity;BME280_pressure;Samples;Min_cycle;Max_cycle;Signal;HPM_P1;HPM_P2
2022/08/04 00:06:01;;;;;;;6.62;2.80;;;;;;;22.17;56.93;100622.22;18482439;32;20449;-56
2022/08/04 00:16:06;;;;;;;5.43;2.83;;;;;;;22.23;56.40;100618.41;18433614;32;20093;-55
2022/08/04 00:26:11;;;;;;;7.05;2.83;;;;;;;21.97;57.54;100623.13;18433233;32;20468;-55
2022/08/04 00:36:14;;;;;;;6.45;2.72;;;;;;;21.35;58.61;100633.87;18433232;32;20365;-56
2022/08/04 00:46:39;;;;;;;5.87;2.85;;;;;;;21.26;59.18;100639.56;18433867;32;20089;-55
2022/08/04 00:57:03;;;;;;;7.82;3.50;;;;;;;21.33;59.25;100638.34;18432485;32;20108;-55
2022/08/04 01:07:23;;;;;;;5.53;2.70;;;;;;;20.84;60.74;100649.28;18432257;32;20386;-55
2022/08/04 01:17:37;;;;;;;5.20;2.90;;;;;;;21.08;60.00;100652.69;18432000;32;20104;-55
2022/08/04 01:27:54;;;;;;;5.18;2.95;;;;;;;21.23;59.96;100651.19;18430648;32;20123;-55
2022/08/04 01:38:02;;;;;;;4.85;2.45;;;;;;;20.95;60.70;100648.81;18431513;32;20107;-56
2022/08/04 01:48:25;;;;;;;6.25;2.70;;;;;;;20.93;61.02;100655.06;18431190;32;20092;-55
2022/08/04 01:58:31;;;;;;;5.12;2.50;;;;;;;20.66;61.60;100651.72;18430742;32;20115;-55
2022/08/04 02:08:42;;;;;;;5.78;2.97;;;;;;;20.64;61.75;100645.62;18430584;32;20093;-55
2022/08/04 02:18:55;;;;;;;6.77;2.93;;;;;;;20.58;61.28;100641.44;18430423;32;20089;-55
2022/08/04 02:29:04;;;;;;;6.18;2.95;;;;;;;20.51;61.43;100643.44;18429751;32;20085;-55
2022/08/04 02:39:10;;;;;;;6.30;2.92;;;;;;;20.23;62.38;100639.25;18429704;32;20186;-55
2022/08/04 02:49:15;;;;;;;5.32;2.90;;;;;;;20.22;61.95;100629.56;18429457;32;20111;-55
2022/08/04 02:59:27;;;;;;;5.65;2.62;;;;;;;20.16;62.14;100628.94;18429100;32;20507;-55
2022/08/04 03:10:03;;;;;;;6.78;2.78;;;;;;;19.99;62.63;100633.09;18428821;32;20487;-55
2022/08/04 03:20:29;;;;;;;6.72;2.80;;;;;;;19.90;63.56;100636.94;18428624;32;20099;-55
2022/08/04 03:30:40;;;;;;;6.40;2.78;;;;;;;19.53;64.91;100639.12;18289723;32;20120;-55
2022/08/04 03:41:03;;;;;;;5.63;3.17;;;;;;;19.87;63.59;100641.50;18301843;32;20112;-55
2022/08/04 04:01:58;;;;;;;6.55;2.83;;;;;;;19.83;64.38;100654.84;18427232;32;20089;-55
2022/08/04 04:12:24;;;;;;;6.22;2.90;;;;;;;20.17;63.43;100655.41;18468851;32;20084;-55
2022/08/04 04:22:48;;;;;;;4.85;3.10;;;;;;;20.68;62.58;100660.47;18488226;32;20126;-55
2022/08/04 04:33:08;;;;;;;5.70;3.00;;;;;;;21.72;59.95;100657.94;18488294;32;20369;-55
2022/08/04 04:43:32;;;;;;;7.10;2.95;;;;;;;21.82;59.07;100658.41;18488139;32;20084;-55
2022/08/04 04:53:58;;;;;;;5.15;2.80;;;;;;;22.11;59.43;100658.88;18487335;32;20152;-55
2022/08/04 05:04:26;;;;;;;6.70;2.75;;;;;;;22.52;58.46;100676.47;18496252;32;20092;-55
2022/08/04 05:14:33;;;;;;;4.28;2.30;;;;;;;22.87;57.09;100663.22;18489177;32;20147;-55
2022/08/04 05:24:46;;;;;;;5.97;2.95;;;;;;;23.34;56.08;100672.47;18438804;32;20117;-56
2022/08/04 05:35:05;;;;;;;4.87;2.60;;;;;;;23.63;55.49;100678.06;18439259;32;20077;-56
2022/08/04 05:45:10;;;;;;;7.18;2.80;;;;;;;24.14;54.33;100689.62;18448310;32;20449;-56
2022/08/04 05:55:14;;;;;;;5.80;2.85;;;;;;;24.87;53.03;100690.94;18430840;32;20113;-56
2022/08/04 06:05:39;;;;;;;6.50;3.17;;;;;;;25.48;53.12;100696.25;18431581;32;20620;-56
2022/08/04 06:15:44;;;;;;;5.80;2.40;;;;;;;26.02;51.12;100700.16;18431406;32;20089;-56
2022/08/04 06:25:51;;;;;;;5.18;2.60;;;;;;;26.41;51.53;100695.03;18491208;32;20150;-56
2022/08/04 06:35:55;;;;;;;7.15;2.65;;;;;;;26.36;48.81;100703.38;18494437;32;20353;-56
2022/08/04 06:46:01;;;;;;;4.93;2.30;;;;;;;27.65;44.58;100702.97;18494317;32;20448;-56
2022/08/04 06:56:05;;;;;;;5.03;2.35;;;;;;;28.17;39.63;100696.66;18492532;32;20093;-56
2022/08/04 07:06:10;;;;;;;3.85;2.10;;;;;;;28.44;37.40;100680.41;18489646;32;20088;-57
2022/08/04 07:16:18;;;;;;;5.05;2.33;;;;;;;29.23;36.71;100680.87;18478249;32;20096;-56
2022/08/04 07:26:28;;;;;;;3.50;1.98;;;;;;;29.65;36.19;100689.28;18490267;32;20388;-55
2022/08/04 07:36:32;;;;;;;3.97;2.05;;;;;;;29.45;35.82;100675.56;18467845;32;20088;-55
2022/08/04 07:46:54;;;;;;;4.35;2.10;;;;;;;30.24;34.39;100670.34;18442898;32;20101;-56
2022/08/04 07:56:57;;;;;;;5.43;2.15;;;;;;;30.72;34.00;100666.41;18449962;32;20085;-55
2022/08/04 08:07:02;;;;;;;5.12;2.58;;;;;;;31.05;33.28;100651.09;18490320;32;20162;-57
2022/08/04 08:17:06;;;;;;;2.65;1.52;;;;;;;31.03;31.67;100650.37;18489902;32;20160;-56
2022/08/04 08:27:10;;;;;;;2.30;1.30;;;;;;;32.05;30.28;100645.19;18487984;32;20088;-56
2022/08/04 08:37:25;;;;;;;2.30;1.40;;;;;;;32.47;27.58;100633.37;18496408;32;20080;-56
2022/08/04 08:47:44;;;;;;;3.47;1.80;;;;;;;32.61;27.01;100637.50;18498857;32;20128;-56
2022/08/04 08:58:31;;;;;;;2.22;1.35;;;;;;;32.73;26.72;100633.66;18494654;32;20105;-56
2022/08/04 09:09:09;;;;;;;3.58;1.52;;;;;;;33.68;24.49;100634.78;18496387;32;20092;-55
2022/08/04 09:19:23;;;;;;;3.42;1.70;;;;;;;33.45;26.28;100621.56;18296224;32;20122;-56
2022/08/04 09:29:50;;;;;;;2.33;1.30;;;;;;;33.83;23.04;100619.72;18293394;32;20515;-56
2022/08/04 09:40:00;;;;;;;3.53;1.62;;;;;;;34.29;23.43;100622.47;18296663;32;20132;-56
2022/08/04 09:50:15;;;;;;;2.60;1.40;;;;;;;34.61;22.55;100609.38;18356188;32;20149;-56
2022/08/04 10:00:19;;;;;;;2.85;1.75;;;;;;;34.26;22.68;100611.09;18494874;32;20092;-56
2022/08/04 10:10:52;;;;;;;2.05;1.42;;;;;;;35.25;23.23;100600.22;18488294;32;20089;-56
2022/08/04 10:21:05;;;;;;;2.42;1.50;;;;;;;35.45;22.80;100589.97;18491379;32;20463;-56
2022/08/04 10:31:22;;;;;;;2.20;1.62;;;;;;;35.38;21.74;100589.75;18478524;32;20096;-56
2022/08/04 10:41:33;;;;;;;4.12;2.30;;;;;;;35.60;21.64;100582.06;18478608;32;20097;-56
2022/08/04 10:51:43;;;;;;;2.55;1.60;;;;;;;36.58;21.05;100565.31;18485058;32;20089;-56
2022/08/04 11:02:21;;;;;;;2.55;1.70;;;;;;;35.77;20.88;100557.69;18485974;32;20190;-56
2022/08/04 11:12:26;;;;;;;2.83;1.60;;;;;;;36.75;19.94;100550.66;18489771;32;20091;-57
2022/08/04 11:22:29;;;;;;;5.68;1.87;;;;;;;36.46;20.39;100537.59;18490400;32;74636;-56
2022/08/04 11:32:39;;;;;;;3.70;2.00;;;;;;;37.18;20.71;100534.12;18493701;32;20449;-57
2022/08/04 11:42:52;;;;;;;5.18;1.95;;;;;;;37.29;19.53;100529.31;18493816;32;20092;-56
2022/08/04 11:52:58;;;;;;;3.60;1.77;;;;;;;35.28;21.92;100524.75;18492219;32;20096;-56
2022/08/04 12:03:20;;;;;;;5.25;1.95;;;;;;;36.22;21.76;100514.84;18493367;32;20080;-56
2022/08/04 12:13:31;;;;;;;4.60;2.10;;;;;;;35.48;20.72;100502.81;18500230;32;20119;-57
2022/08/04 12:23:39;;;;;;;3.25;2.10;;;;;;;36.31;21.56;100486.66;18500249;32;20109;-56
2022/08/04 12:33:47;;;;;;;3.43;1.80;;;;;;;36.97;19.81;100468.50;18496645;32;20088;-56
2022/08/04 12:44:12;;;;;;;5.07;1.95;;;;;;;37.33;19.08;100459.88;18499444;32;20096;-56
2022/08/04 12:54:37;;;;;;;3.12;2.00;;;;;;;37.37;18.82;100446.75;18497305;32;20140;-55
2022/08/04 13:04:42;;;;;;;4.12;2.08;;;;;;;37.21;18.25;100448.53;18498511;32;20352;-56
2022/08/04 13:15:08;;;;;;;4.03;2.05;;;;;;;37.18;18.33;100440.75;18499047;32;20161;-56
2022/08/04 13:25:20;;;;;;;11.52;2.22;;;;;;;36.94;18.99;100426.19;18494814;32;20166;-56
2022/08/04 13:35:46;;;;;;;3.15;1.77;;;;;;;37.90;18.11;100419.69;18495429;32;20096;-55
2022/08/04 13:45:59;;;;;;;3.15;1.80;;;;;;;37.25;17.37;100410.94;18492994;32;20107;-56
2022/08/04 13:56:07;;;;;;;4.43;1.85;;;;;;;35.85;19.25;100402.09;18491204;32;20104;-56
2022/08/04 14:06:18;;;;;;;3.37;1.90;;;;;;;37.44;18.74;100391.41;18491493;32;20088;-56
2022/08/04 14:16:24;;;;;;;4.37;2.03;;;;;;;35.72;19.51;100386.34;18493496;32;20104;-56
2022/08/04 14:26:31;;;;;;;4.20;1.95;;;;;;;35.95;19.40;100376.47;18493251;32;20096;-56
2022/08/04 14:36:41;;;;;;;3.50;2.03;;;;;;;37.00;18.48;100364.81;18492331;32;20428;-56
2022/08/04 14:47:05;;;;;;;3.67;1.95;;;;;;;36.86;18.45;100374.59;18494929;32;20096;-56
2022/08/04 14:57:17;;;;;;;3.33;2.22;;;;;;;35.59;20.45;100368.66;18493734;32;20100;-56
2022/08/04 15:07:20;;;;;;;3.00;1.90;;;;;;;34.97;20.52;100354.41;18491184;32;20097;-56
2022/08/04 15:17:24;;;;;;;4.35;2.10;;;;;;;34.97;21.40;100357.12;18495669;32;20088;-56
2022/08/04 15:27:42;;;;;;;5.35;2.40;;;;;;;34.34;21.30;100363.78;18495603;32;20193;-56
2022/08/04 15:37:54;;;;;;;3.70;2.25;;;;;;;35.59;20.27;100351.53;18491783;32;20084;-56
2022/08/04 15:48:26;;;;;;;4.62;2.20;;;;;;;35.66;20.58;100345.25;18432934;32;20135;-56
2022/08/04 15:58:49;;;;;;;4.85;2.08;;;;;;;34.55;21.37;100347.16;18427832;32;20097;-56
2022/08/04 16:08:59;;;;;;;3.12;2.00;;;;;;;34.37;21.41;100333.66;18429304;32;20077;-56
2022/08/04 16:19:06;;;;;;;4.82;2.12;;;;;;;34.31;21.92;100324.31;18429055;32;20085;-56
2022/08/04 16:29:27;;;;;;;5.35;2.10;;;;;;;34.86;21.89;100324.91;18428283;32;20708;-56
2022/08/04 16:39:32;;;;;;;4.68;2.05;;;;;;;34.63;21.06;100317.41;18427452;32;20116;-56
2022/08/04 16:50:02;;;;;;;5.22;2.20;;;;;;;34.38;21.65;100319.09;18425859;32;20101;-56
2022/08/04 17:00:08;;;;;;;4.57;1.90;;;;;;;34.67;21.98;100315.19;18435695;32;20765;-56
2022/08/04 17:10:11;;;;;;;5.18;2.20;;;;;;;34.59;22.93;100313.28;18435525;32;20133;-56
2022/08/04 17:20:17;;;;;;;7.43;2.30;;;;;;;34.39;23.70;100324.34;18435362;32;20174;-56
2022/08/04 17:30:27;;;;;;;3.97;2.20;;;;;;;34.09;24.36;100323.84;18434456;32;20740;-56
2022/08/04 17:40:32;;;;;;;9.23;2.72;;;;;;;33.72;28.63;100327.63;18434684;32;20089;-56
2022/08/04 17:50:36;;;;;;;4.72;2.47;;;;;;;33.08;30.90;100333.94;18434544;32;20085;-56
2022/08/04 18:00:48;;;;;;;;;;;;;;;32.30;33.60;100338.69;18434423;32;20467;-56
2022/08/04 18:11:03;;;;;;;6.05;2.67;;;;;;;31.85;36.34;100344.75;18433646;32;20383;-56
2022/08/04 18:21:08;;;;;;;5.35;2.55;;;;;;;31.11;36.82;100337.88;18446991;32;20115;-56
2022/08/04 18:31:12;;;;;;;6.97;2.60;;;;;;;29.95;39.07;100359.53;18495307;32;20088;-56
2022/08/04 18:41:20;;;;;;;6.00;2.60;;;;;;;30.09;38.18;100371.84;18454781;32;20085;-56
2022/08/04 18:51:23;;;;;;;6.20;2.70;;;;;;;29.86;38.65;100387.22;18487950;32;20117;-56
2022/08/04 19:01:34;;;;;;;6.17;2.90;;;;;;;29.43;39.94;100389.81;18485361;32;20093;-56
2022/08/04 19:11:57;;;;;;;6.40;3.10;;;;;;;28.98;39.66;100404.19;18490296;32;20093;-57
2022/08/04 19:22:02;;;;;;;7.12;3.35;;;;;;;28.53;41.94;100413.91;18485743;32;20100;-55
2022/08/04 19:32:10;;;;;;;7.05;3.17;;;;;;;28.33;42.22;100414.62;18493396;32;20120;-56
2022/08/04 19:42:19;;;;;;;6.90;2.92;;;;;;;27.86;43.60;100417.22;18452484;32;20097;-56
2022/08/04 19:52:23;;;;;;;5.00;2.80;;;;;;;27.59;44.23;100412.94;18429244;32;20097;-55
2022/08/04 20:02:39;;;;;;;6.50;3.08;;;;;;;27.28;45.08;100419.56;18479892;32;20100;-55
2022/08/04 20:12:43;;;;;;;5.40;2.70;;;;;;;26.94;46.20;100423.81;18492771;32;20123;-55
2022/08/04 20:22:59;;;;;;;5.90;2.80;;;;;;;26.69;47.14;100436.22;18492243;32;20107;-56
2022/08/04 20:33:02;;;;;;;8.00;3.45;;;;;;;26.31;47.75;100432.56;18498552;32;20437;-55
2022/08/04 20:43:10;;;;;;;5.82;2.92;;;;;;;25.93;48.78;100449.34;18495165;32;20093;-55
2022/08/04 20:53:13;;;;;;;5.43;2.97;;;;;;;25.63;49.83;100454.81;18499623;32;20107;-55
2022/08/04 21:03:20;;;;;;;5.85;2.87;;;;;;;25.35;50.16;100455.69;18474370;32;20100;-55
2022/08/04 21:13:48;;;;;;;8.35;3.17;;;;;;;25.29;50.46;100459.59;18490200;32;20111;-55
2022/08/04 21:23:55;;;;;;;8.10;3.50;;;;;;;25.08;51.19;100462.69;18463783;32;20109;-55
2022/08/04 21:33:59;;;;;;;6.78;3.03;;;;;;;25.23;50.97;100465.34;18478333;32;20128;-56
2022/08/04 21:44:04;;;;;;;5.70;2.97;;;;;;;24.87;52.03;100478.22;18495405;32;20096;-55
2022/08/04 21:54:10;;;;;;;6.65;3.03;;;;;;;24.70;52.70;100484.56;18486146;32;20113;-55
2022/08/04 22:04:20;;;;;;;7.13;3.33;;;;;;;24.69;52.44;100490.84;18491194;32;20103;-55
2022/08/04 22:14:24;;;;;;;7.12;3.00;;;;;;;24.53;52.81;100493.59;18440677;32;20374;-55
2022/08/04 22:24:36;;;;;;;7.20;3.42;;;;;;;24.11;53.54;100501.34;18459816;32;20138;-56
2022/08/04 22:34:40;;;;;;;5.75;3.20;;;;;;;24.13;53.00;100510.09;18434928;32;20108;-55
2022/08/04 22:44:49;;;;;;;6.53;3.10;;;;;;;24.02;53.15;100513.34;18430031;32;20190;-55
2022/08/04 22:54:53;;;;;;;6.43;3.42;;;;;;;23.99;53.66;100518.87;18429478;32;20400;-56
2022/08/04 23:04:59;;;;;;;7.15;3.42;;;;;;;23.83;54.04;100508.22;18466058;32;20132;-55
2022/08/04 23:15:02;;;;;;;7.82;3.35;;;;;;;23.65;54.21;100502.97;18450279;32;20353;-55
2022/08/04 23:25:08;;;;;;;6.53;3.70;;;;;;;23.52;55.04;100505.44;18428346;32;20133;-55
2022/08/04 23:35:19;;;;;;;6.15;3.08;;;;;;;23.22;56.29;100497.28;18427893;32;20151;-55
2022/08/04 23:45:25;;;;;;;6.05;3.62;;;;;;;23.09;56.50;100499.75;18427735;32;20097;-55
2022/08/04 23:55:48;;;;;;;7.68;3.50;;;;;;;22.86;57.25;100497.38;18428285;32;20417;-55
